首页
METAR-TAF:

METAR-TAF

机场 :

奥兰多桑福德国际机场

奥兰多, 佛罗里达州, 美国

纬度: 28-47N, 经度: 081-15W, 海拔: 17米

当前天气观测

该预报发布于16分钟前的16:53 UTC
风速5节,风向北转东北
温度 31°C
湿度 59%
气压 1014 hPa
能見度: 16.1公里
少量云层高于3100英尺
多云层高于4700英尺
多云层高于6500英尺

METAR: KSFB 041653Z 02005KT 10SM FEW031 BKN047 BKN065 31/22 A2995 RMK AO2 SLP141 T03110217

时间: 13:09 (17:09 UTC)

预报

该预报发布于2小时和7分钟前的15:02 UTC
预报有效从04日的 15点(UTC)到 05日的 12点(UTC)
风速5节,风向西
能見度: 10公里
散云层高于2500英尺
多云层高于3500英尺
附近有阵雨
短暂存在
从 04日的 15点(UTC)到 04日的 16点(UTC)
多云层高于2500英尺
从 04日的 1800点(UTC)
风速9节,风向西
能見度: 10公里
散云层高于3500英尺, 积雨云.
多云层高于6000英尺
附近有雷暴
短暂存在
从 04日的 18点(UTC)到 04日的 21点(UTC)
能見度: 4.8公里
多云层高于3500英尺, 积雨云.
阴天层高于8000英尺
雷暴, 雨
从 05日的 0100点(UTC)
风速5节,风向西南
能見度: 10公里
散云层高于4000英尺
多云层高于10000英尺
阴天层高于25000英尺
附近有阵雨
从 05日的 0300点(UTC)
风速3节,风向
能見度: 10公里
少量云层高于10000英尺
多云层高于25000英尺

TAF: KSFB 041502Z 0415/0512 27005KT P6SM VCSH SCT025 BKN035 TEMPO 0415/0416 BKN025 FM041800 27009KT P6SM VCTS SCT035CB BKN060 TEMPO 0418/0421 3SM TSRA BKN035CB OVC080 FM050100 22005KT P6SM VCSH SCT040 BKN100 OVC250 FM050300 19003KT P6SM FEW100 BKN250

超过4000个机场的气象观测和天气预报(METAR&TAF报告)。

可查询的气象台以黄色和红色小点在地图上表示。

将鼠标移到小点上方,可查看气象台名称。

然后点击查看天气观测和预报。

如需切换地图:点击带黑十字的绿色按钮放大地图;点击带横线的绿色按钮缩小地图;或者点击绿色箭头查看邻近地区的地图。


METAR-TAF: